sensor_id;sensor_type;location;lat;lon;timestamp;P1;durP1;ratioP1;P2;durP2;ratioP2
78840;SDS011;68379;47.190;27.558;2024-02-15T00:01:54;5.30;;;2.80;;
78840;SDS011;68379;47.190;27.558;2024-02-15T00:04:25;4.40;;;2.40;;
78840;SDS011;68379;47.190;27.558;2024-02-15T00:06:58;4.00;;;2.40;;
78840;SDS011;68379;47.190;27.558;2024-02-15T00:09:30;4.10;;;2.60;;
78840;SDS011;68379;47.190;27.558;2024-02-15T00:12:02;4.00;;;2.30;;
78840;SDS011;68379;47.190;27.558;2024-02-15T00:14:34;4.30;;;2.40;;
78840;SDS011;68379;47.190;27.558;2024-02-15T00:17:07;5.80;;;2.50;;
78840;SDS011;68379;47.190;27.558;2024-02-15T00:19:39;7.20;;;2.50;;
78840;SDS011;68379;47.190;27.558;2024-02-15T00:22:11;5.80;;;2.20;;
78840;SDS011;68379;47.190;27.558;2024-02-15T00:24:43;4.30;;;2.90;;
78840;SDS011;68379;47.190;27.558;2024-02-15T00:27:16;6.10;;;2.70;;
78840;SDS011;68379;47.190;27.558;2024-02-15T00:29:48;4.20;;;2.30;;
78840;SDS011;68379;47.190;27.558;2024-02-15T00:32:20;4.50;;;2.40;;
78840;SDS011;68379;47.190;27.558;2024-02-15T00:34:51;4.50;;;2.50;;
78840;SDS011;68379;47.190;27.558;2024-02-15T00:37:23;5.50;;;2.90;;
78840;SDS011;68379;47.190;27.558;2024-02-15T00:39:54;5.30;;;2.70;;
78840;SDS011;68379;47.190;27.558;2024-02-15T00:42:26;4.90;;;2.60;;
78840;SDS011;68379;47.190;27.558;2024-02-15T00:44:59;5.20;;;2.20;;
78840;SDS011;68379;47.190;27.558;2024-02-15T00:47:31;5.70;;;2.50;;
78840;SDS011;68379;47.190;27.558;2024-02-15T00:50:03;5.00;;;2.50;;
78840;SDS011;68379;47.190;27.558;2024-02-15T00:52:36;9.40;;;2.80;;
78840;SDS011;68379;47.190;27.558;2024-02-15T00:55:08;5.20;;;2.50;;
78840;SDS011;68379;47.190;27.558;2024-02-15T00:57:39;4.70;;;2.60;;
78840;SDS011;68379;47.190;27.558;2024-02-15T01:00:12;5.10;;;2.60;;
78840;SDS011;68379;47.190;27.558;2024-02-15T01:02:44;9.20;;;3.40;;
78840;SDS011;68379;47.190;27.558;2024-02-15T01:05:17;6.20;;;2.70;;
78840;SDS011;68379;47.190;27.558;2024-02-15T01:07:50;4.40;;;2.10;;
78840;SDS011;68379;47.190;27.558;2024-02-15T01:10:24;6.10;;;2.80;;
78840;SDS011;68379;47.190;27.558;2024-02-15T01:12:56;5.10;;;2.60;;
78840;SDS011;68379;47.190;27.558;2024-02-15T01:15:27;6.30;;;2.20;;
78840;SDS011;68379;47.190;27.558;2024-02-15T01:17:59;7.10;;;2.80;;
78840;SDS011;68379;47.190;27.558;2024-02-15T01:20:31;3.40;;;1.50;;
78840;SDS011;68379;47.190;27.558;2024-02-15T01:23:03;5.70;;;3.00;;
78840;SDS011;68379;47.190;27.558;2024-02-15T01:25:35;6.30;;;3.10;;
78840;SDS011;68379;47.190;27.558;2024-02-15T01:28:08;4.70;;;2.40;;
78840;SDS011;68379;47.190;27.558;2024-02-15T01:30:39;4.50;;;2.60;;
78840;SDS011;68379;47.190;27.558;2024-02-15T01:33:11;6.00;;;2.60;;
78840;SDS011;68379;47.190;27.558;2024-02-15T01:35:43;4.80;;;2.40;;
78840;SDS011;68379;47.190;27.558;2024-02-15T01:38:16;6.70;;;3.70;;
78840;SDS011;68379;47.190;27.558;2024-02-15T01:40:48;4.60;;;2.50;;
78840;SDS011;68379;47.190;27.558;2024-02-15T01:43:19;4.60;;;2.30;;
78840;SDS011;68379;47.190;27.558;2024-02-15T01:45:51;6.30;;;3.10;;
78840;SDS011;68379;47.190;27.558;2024-02-15T01:48:24;4.70;;;2.50;;
78840;SDS011;68379;47.190;27.558;2024-02-15T01:50:56;5.00;;;2.50;;
78840;SDS011;68379;47.190;27.558;2024-02-15T01:53:28;5.90;;;2.40;;
78840;SDS011;68379;47.190;27.558;2024-02-15T01:56:00;5.20;;;2.80;;
78840;SDS011;68379;47.190;27.558;2024-02-15T01:58:33;3.90;;;2.30;;
78840;SDS011;68379;47.190;27.558;2024-02-15T02:01:05;5.00;;;2.80;;
78840;SDS011;68379;47.190;27.558;2024-02-15T02:03:37;5.30;;;3.10;;
78840;SDS011;68379;47.190;27.558;2024-02-15T02:06:10;3.90;;;2.10;;
78840;SDS011;68379;47.190;27.558;2024-02-15T02:08:42;4.70;;;2.10;;
78840;SDS011;68379;47.190;27.558;2024-02-15T02:11:13;4.10;;;1.60;;
78840;SDS011;68379;47.190;27.558;2024-02-15T02:13:45;3.90;;;2.10;;
78840;SDS011;68379;47.190;27.558;2024-02-15T02:19:05;4.30;;;2.20;;
78840;SDS011;68379;47.190;27.558;2024-02-15T02:21:37;5.50;;;1.90;;
78840;SDS011;68379;47.190;27.558;2024-02-15T02:24:11;5.50;;;2.20;;
78840;SDS011;68379;47.190;27.558;2024-02-15T02:26:48;4.80;;;2.30;;
78840;SDS011;68379;47.190;27.558;2024-02-15T02:29:21;5.00;;;2.30;;
78840;SDS011;68379;47.190;27.558;2024-02-15T02:31:53;5.50;;;2.70;;
78840;SDS011;68379;47.190;27.558;2024-02-15T02:34:24;5.80;;;2.60;;
78840;SDS011;68379;47.190;27.558;2024-02-15T02:36:56;5.40;;;2.80;;
78840;SDS011;68379;47.190;27.558;2024-02-15T02:39:33;6.60;;;2.60;;
78840;SDS011;68379;47.190;27.558;2024-02-15T02:42:05;3.90;;;2.30;;
78840;SDS011;68379;47.190;27.558;2024-02-15T02:44:37;4.20;;;2.40;;
78840;SDS011;68379;47.190;27.558;2024-02-15T02:47:08;5.40;;;2.70;;
78840;SDS011;68379;47.190;27.558;2024-02-15T02:49:40;7.70;;;2.90;;
78840;SDS011;68379;47.190;27.558;2024-02-15T02:52:12;4.90;;;2.80;;
78840;SDS011;68379;47.190;27.558;2024-02-15T02:54:44;7.20;;;2.70;;
78840;SDS011;68379;47.190;27.558;2024-02-15T02:57:15;4.30;;;2.80;;
78840;SDS011;68379;47.190;27.558;2024-02-15T02:59:47;5.60;;;2.50;;
78840;SDS011;68379;47.190;27.558;2024-02-15T03:02:19;6.60;;;2.40;;
78840;SDS011;68379;47.190;27.558;2024-02-15T03:04:52;6.90;;;3.10;;
78840;SDS011;68379;47.190;27.558;2024-02-15T03:07:25;6.10;;;2.30;;
78840;SDS011;68379;47.190;27.558;2024-02-15T03:09:56;6.00;;;2.90;;
78840;SDS011;68379;47.190;27.558;2024-02-15T03:12:28;4.00;;;2.30;;
78840;SDS011;68379;47.190;27.558;2024-02-15T03:15:00;6.40;;;2.40;;
78840;SDS011;68379;47.190;27.558;2024-02-15T03:17:31;5.10;;;2.40;;
78840;SDS011;68379;47.190;27.558;2024-02-15T03:20:04;6.40;;;2.40;;
78840;SDS011;68379;47.190;27.558;2024-02-15T03:22:40;4.80;;;2.90;;
78840;SDS011;68379;47.190;27.558;2024-02-15T03:25:11;4.50;;;2.20;;
78840;SDS011;68379;47.190;27.558;2024-02-15T03:27:43;4.60;;;2.70;;
78840;SDS011;68379;47.190;27.558;2024-02-15T03:30:15;4.60;;;2.50;;
78840;SDS011;68379;47.190;27.558;2024-02-15T03:32:47;4.40;;;2.20;;
78840;SDS011;68379;47.190;27.558;2024-02-15T03:35:21;6.50;;;2.30;;
78840;SDS011;68379;47.190;27.558;2024-02-15T03:37:54;4.50;;;2.20;;
78840;SDS011;68379;47.190;27.558;2024-02-15T03:40:26;5.20;;;2.20;;
78840;SDS011;68379;47.190;27.558;2024-02-15T03:42:58;6.90;;;2.40;;
78840;SDS011;68379;47.190;27.558;2024-02-15T03:45:34;6.80;;;2.40;;
78840;SDS011;68379;47.190;27.558;2024-02-15T03:48:06;3.70;;;2.30;;
78840;SDS011;68379;47.190;27.558;2024-02-15T03:50:38;6.90;;;2.60;;
78840;SDS011;68379;47.190;27.558;2024-02-15T03:53:10;6.10;;;2.30;;
78840;SDS011;68379;47.190;27.558;2024-02-15T03:55:42;5.70;;;2.80;;
78840;SDS011;68379;47.190;27.558;2024-02-15T03:58:14;7.60;;;2.50;;
78840;SDS011;68379;47.190;27.558;2024-02-15T04:00:45;3.90;;;2.00;;
78840;SDS011;68379;47.190;27.558;2024-02-15T04:03:17;5.30;;;3.10;;
78840;SDS011;68379;47.190;27.558;2024-02-15T04:05:49;5.40;;;2.40;;
78840;SDS011;68379;47.190;27.558;2024-02-15T04:08:21;4.30;;;2.20;;
78840;SDS011;68379;47.190;27.558;2024-02-15T04:10:52;4.60;;;2.40;;
78840;SDS011;68379;47.190;27.558;2024-02-15T04:13:26;4.90;;;2.30;;
78840;SDS011;68379;47.190;27.558;2024-02-15T04:15:57;4.60;;;3.10;;
78840;SDS011;68379;47.190;27.558;2024-02-15T04:18:29;5.30;;;3.20;;
78840;SDS011;68379;47.190;27.558;2024-02-15T04:21:00;3.40;;;1.40;;
78840;SDS011;68379;47.190;27.558;2024-02-15T04:23:34;5.00;;;2.20;;
78840;SDS011;68379;47.190;27.558;2024-02-15T04:26:05;6.20;;;3.00;;
78840;SDS011;68379;47.190;27.558;2024-02-15T04:28:37;3.90;;;2.30;;
78840;SDS011;68379;47.190;27.558;2024-02-15T04:31:09;4.40;;;2.40;;
78840;SDS011;68379;47.190;27.558;2024-02-15T04:33:41;2.90;;;1.30;;
78840;SDS011;68379;47.190;27.558;2024-02-15T04:36:13;4.20;;;2.70;;
78840;SDS011;68379;47.190;27.558;2024-02-15T04:38:51;6.90;;;2.80;;
78840;SDS011;68379;47.190;27.558;2024-02-15T04:41:23;4.00;;;2.60;;
78840;SDS011;68379;47.190;27.558;2024-02-15T04:43:54;2.70;;;1.80;;
78840;SDS011;68379;47.190;27.558;2024-02-15T04:46:26;4.80;;;2.50;;
78840;SDS011;68379;47.190;27.558;2024-02-15T04:48:58;4.10;;;2.00;;
78840;SDS011;68379;47.190;27.558;2024-02-15T04:51:31;3.90;;;2.20;;
78840;SDS011;68379;47.190;27.558;2024-02-15T04:54:03;7.60;;;2.80;;
78840;SDS011;68379;47.190;27.558;2024-02-15T04:56:35;4.70;;;1.90;;
78840;SDS011;68379;47.190;27.558;2024-02-15T04:59:07;4.80;;;2.60;;
78840;SDS011;68379;47.190;27.558;2024-02-15T05:01:40;5.50;;;2.40;;
78840;SDS011;68379;47.190;27.558;2024-02-15T05:04:12;5.60;;;2.70;;
78840;SDS011;68379;47.190;27.558;2024-02-15T05:06:44;4.80;;;3.00;;
78840;SDS011;68379;47.190;27.558;2024-02-15T05:09:15;4.10;;;2.20;;
78840;SDS011;68379;47.190;27.558;2024-02-15T05:11:47;4.90;;;2.60;;
78840;SDS011;68379;47.190;27.558;2024-02-15T05:14:20;6.50;;;3.00;;
78840;SDS011;68379;47.190;27.558;2024-02-15T05:16:52;4.60;;;2.80;;
78840;SDS011;68379;47.190;27.558;2024-02-15T05:19:24;7.40;;;2.80;;
78840;SDS011;68379;47.190;27.558;2024-02-15T05:21:58;4.70;;;2.30;;
78840;SDS011;68379;47.190;27.558;2024-02-15T05:24:33;4.50;;;2.50;;
78840;SDS011;68379;47.190;27.558;2024-02-15T05:27:07;6.10;;;2.60;;
78840;SDS011;68379;47.190;27.558;2024-02-15T05:29:38;5.50;;;2.90;;
78840;SDS011;68379;47.190;27.558;2024-02-15T05:32:11;6.40;;;3.40;;
78840;SDS011;68379;47.190;27.558;2024-02-15T05:37:16;6.30;;;2.80;;
78840;SDS011;68379;47.190;27.558;2024-02-15T05:39:47;9.60;;;3.60;;
78840;SDS011;68379;47.190;27.558;2024-02-15T05:42:21;6.20;;;3.00;;
78840;SDS011;68379;47.190;27.558;2024-02-15T05:44:55;4.80;;;2.70;;
78840;SDS011;68379;47.190;27.558;2024-02-15T05:47:34;5.20;;;2.60;;
78840;SDS011;68379;47.190;27.558;2024-02-15T05:50:06;5.00;;;2.80;;
78840;SDS011;68379;47.190;27.558;2024-02-15T05:52:38;5.80;;;2.70;;
78840;SDS011;68379;47.190;27.558;2024-02-15T05:55:10;5.30;;;3.40;;
78840;SDS011;68379;47.190;27.558;2024-02-15T05:57:45;8.00;;;3.30;;
78840;SDS011;68379;47.190;27.558;2024-02-15T06:00:17;6.80;;;3.90;;
78840;SDS011;68379;47.190;27.558;2024-02-15T06:02:49;6.10;;;2.80;;
78840;SDS011;68379;47.190;27.558;2024-02-15T06:05:23;5.90;;;3.10;;
78840;SDS011;68379;47.190;27.558;2024-02-15T06:07:55;5.10;;;2.90;;
78840;SDS011;68379;47.190;27.558;2024-02-15T06:10:27;4.80;;;2.80;;
78840;SDS011;68379;47.190;27.558;2024-02-15T06:12:58;7.10;;;3.20;;
78840;SDS011;68379;47.190;27.558;2024-02-15T06:15:30;5.70;;;3.50;;
78840;SDS011;68379;47.190;27.558;2024-02-15T06:18:02;6.90;;;3.50;;
78840;SDS011;68379;47.190;27.558;2024-02-15T06:20:37;5.00;;;2.60;;
78840;SDS011;68379;47.190;27.558;2024-02-15T06:23:09;5.70;;;2.60;;
78840;SDS011;68379;47.190;27.558;2024-02-15T06:28:13;6.90;;;3.40;;
78840;SDS011;68379;47.190;27.558;2024-02-15T06:31:09;5.50;;;3.10;;
78840;SDS011;68379;47.190;27.558;2024-02-15T06:33:59;6.50;;;3.20;;
78840;SDS011;68379;47.190;27.558;2024-02-15T06:36:49;4.50;;;2.90;;
78840;SDS011;68379;47.190;27.558;2024-02-15T06:39:39;4.90;;;2.50;;
78840;SDS011;68379;47.190;27.558;2024-02-15T06:42:13;5.20;;;2.70;;
78840;SDS011;68379;47.190;27.558;2024-02-15T06:44:47;4.60;;;2.70;;
78840;SDS011;68379;47.190;27.558;2024-02-15T06:47:19;6.10;;;3.10;;
78840;SDS011;68379;47.190;27.558;2024-02-15T06:49:50;6.20;;;3.40;;
78840;SDS011;68379;47.190;27.558;2024-02-15T06:52:23;6.50;;;3.30;;
78840;SDS011;68379;47.190;27.558;2024-02-15T06:54:55;7.50;;;3.70;;
78840;SDS011;68379;47.190;27.558;2024-02-15T06:57:26;5.40;;;2.60;;
78840;SDS011;68379;47.190;27.558;2024-02-15T06:59:58;5.50;;;3.00;;
78840;SDS011;68379;47.190;27.558;2024-02-15T07:02:29;7.70;;;3.00;;
78840;SDS011;68379;47.190;27.558;2024-02-15T07:05:01;5.80;;;3.00;;
78840;SDS011;68379;47.190;27.558;2024-02-15T07:07:34;7.60;;;3.30;;
78840;SDS011;68379;47.190;27.558;2024-02-15T07:10:07;5.20;;;3.40;;
78840;SDS011;68379;47.190;27.558;2024-02-15T07:12:41;6.40;;;3.00;;
78840;SDS011;68379;47.190;27.558;2024-02-15T07:15:13;5.30;;;3.10;;
78840;SDS011;68379;47.190;27.558;2024-02-15T07:17:45;6.60;;;3.20;;
78840;SDS011;68379;47.190;27.558;2024-02-15T07:20:16;5.30;;;3.20;;
78840;SDS011;68379;47.190;27.558;2024-02-15T07:22:51;5.10;;;3.10;;
78840;SDS011;68379;47.190;27.558;2024-02-15T07:25:23;4.90;;;2.80;;
78840;SDS011;68379;47.190;27.558;2024-02-15T07:27:54;5.30;;;3.20;;
78840;SDS011;68379;47.190;27.558;2024-02-15T07:30:26;5.30;;;3.00;;
78840;SDS011;68379;47.190;27.558;2024-02-15T07:32:57;5.20;;;3.10;;
78840;SDS011;68379;47.190;27.558;2024-02-15T07:35:29;5.80;;;3.30;;
78840;SDS011;68379;47.190;27.558;2024-02-15T07:38:01;7.40;;;3.30;;
78840;SDS011;68379;47.190;27.558;2024-02-15T07:40:33;5.40;;;3.30;;
78840;SDS011;68379;47.190;27.558;2024-02-15T07:43:07;5.60;;;3.70;;
78840;SDS011;68379;47.190;27.558;2024-02-15T07:45:39;5.90;;;2.50;;
78840;SDS011;68379;47.190;27.558;2024-02-15T07:48:11;5.40;;;3.40;;
78840;SDS011;68379;47.190;27.558;2024-02-15T07:50:43;4.60;;;3.00;;
78840;SDS011;68379;47.190;27.558;2024-02-15T07:53:14;6.90;;;3.40;;
78840;SDS011;68379;47.190;27.558;2024-02-15T07:55:46;7.60;;;3.70;;
78840;SDS011;68379;47.190;27.558;2024-02-15T07:58:18;7.20;;;3.40;;
78840;SDS011;68379;47.190;27.558;2024-02-15T08:00:50;5.70;;;2.90;;
78840;SDS011;68379;47.190;27.558;2024-02-15T08:03:22;5.90;;;3.80;;
78840;SDS011;68379;47.190;27.558;2024-02-15T08:05:57;6.10;;;3.20;;
78840;SDS011;68379;47.190;27.558;2024-02-15T08:08:29;5.50;;;2.70;;
78840;SDS011;68379;47.190;27.558;2024-02-15T08:11:03;7.60;;;3.50;;
78840;SDS011;68379;47.190;27.558;2024-02-15T08:13:38;5.60;;;3.30;;
78840;SDS011;68379;47.190;27.558;2024-02-15T08:16:09;8.60;;;3.60;;
78840;SDS011;68379;47.190;27.558;2024-02-15T08:18:44;6.60;;;3.30;;
78840;SDS011;68379;47.190;27.558;2024-02-15T08:21:16;5.10;;;3.00;;
78840;SDS011;68379;47.190;27.558;2024-02-15T08:23:54;6.30;;;3.00;;
78840;SDS011;68379;47.190;27.558;2024-02-15T08:26:26;7.00;;;3.30;;
78840;SDS011;68379;47.190;27.558;2024-02-15T08:28:58;6.60;;;3.20;;
78840;SDS011;68379;47.190;27.558;2024-02-15T08:31:31;5.60;;;3.20;;
78840;SDS011;68379;47.190;27.558;2024-02-15T08:34:03;4.30;;;2.30;;
78840;SDS011;68379;47.190;27.558;2024-02-15T08:36:38;7.30;;;3.50;;
78840;SDS011;68379;47.190;27.558;2024-02-15T08:39:09;6.70;;;3.20;;
78840;SDS011;68379;47.190;27.558;2024-02-15T08:41:41;7.30;;;3.50;;
78840;SDS011;68379;47.190;27.558;2024-02-15T08:44:12;5.40;;;2.80;;
78840;SDS011;68379;47.190;27.558;2024-02-15T08:46:47;5.70;;;3.20;;
78840;SDS011;68379;47.190;27.558;2024-02-15T08:49:18;3.80;;;2.70;;
78840;SDS011;68379;47.190;27.558;2024-02-15T08:51:50;3.50;;;2.10;;
78840;SDS011;68379;47.190;27.558;2024-02-15T08:54:21;5.00;;;2.90;;
78840;SDS011;68379;47.190;27.558;2024-02-15T08:56:54;5.30;;;2.80;;
78840;SDS011;68379;47.190;27.558;2024-02-15T08:59:26;5.70;;;3.00;;
78840;SDS011;68379;47.190;27.558;2024-02-15T09:01:58;5.20;;;2.70;;
78840;SDS011;68379;47.190;27.558;2024-02-15T09:04:30;6.20;;;3.30;;
78840;SDS011;68379;47.190;27.558;2024-02-15T09:07:02;7.90;;;3.40;;
78840;SDS011;68379;47.190;27.558;2024-02-15T09:09:33;5.20;;;3.00;;
78840;SDS011;68379;47.190;27.558;2024-02-15T09:12:07;5.60;;;2.90;;
78840;SDS011;68379;47.190;27.558;2024-02-15T09:14:40;8.90;;;3.20;;
78840;SDS011;68379;47.190;27.558;2024-02-15T09:17:11;6.10;;;3.20;;
78840;SDS011;68379;47.190;27.558;2024-02-15T09:19:43;5.10;;;3.10;;
78840;SDS011;68379;47.190;27.558;2024-02-15T09:24:46;5.80;;;2.80;;
78840;SDS011;68379;47.190;27.558;2024-02-15T09:27:18;9.50;;;3.60;;
78840;SDS011;68379;47.190;27.558;2024-02-15T09:29:50;6.20;;;3.70;;
78840;SDS011;68379;47.190;27.558;2024-02-15T09:32:22;5.90;;;3.60;;
78840;SDS011;68379;47.190;27.558;2024-02-15T09:34:54;5.00;;;3.30;;
78840;SDS011;68379;47.190;27.558;2024-02-15T09:37:25;4.50;;;3.00;;
78840;SDS011;68379;47.190;27.558;2024-02-15T09:39:58;5.40;;;3.00;;
78840;SDS011;68379;47.190;27.558;2024-02-15T09:42:34;4.10;;;3.00;;
78840;SDS011;68379;47.190;27.558;2024-02-15T09:45:08;5.90;;;2.90;;
78840;SDS011;68379;47.190;27.558;2024-02-15T09:47:41;5.80;;;3.40;;
78840;SDS011;68379;47.190;27.558;2024-02-15T09:50:14;5.70;;;2.90;;
78840;SDS011;68379;47.190;27.558;2024-02-15T09:52:50;4.20;;;2.60;;
78840;SDS011;68379;47.190;27.558;2024-02-15T09:55:23;5.10;;;3.00;;
78840;SDS011;68379;47.190;27.558;2024-02-15T09:57:55;5.50;;;2.80;;
78840;SDS011;68379;47.190;27.558;2024-02-15T10:00:28;5.90;;;2.80;;
78840;SDS011;68379;47.190;27.558;2024-02-15T10:02:59;5.90;;;2.80;;
78840;SDS011;68379;47.190;27.558;2024-02-15T10:05:33;5.60;;;2.80;;
78840;SDS011;68379;47.190;27.558;2024-02-15T10:08:05;4.70;;;3.00;;
78840;SDS011;68379;47.190;27.558;2024-02-15T10:10:39;4.60;;;2.90;;
78840;SDS011;68379;47.190;27.558;2024-02-15T10:13:13;5.70;;;2.80;;
78840;SDS011;68379;47.190;27.558;2024-02-15T10:15:52;4.40;;;2.90;;
78840;SDS011;68379;47.190;27.558;2024-02-15T10:18:23;4.70;;;2.80;;
78840;SDS011;68379;47.190;27.558;2024-02-15T10:20:58;4.20;;;2.70;;
78840;SDS011;68379;47.190;27.558;2024-02-15T10:23:30;6.00;;;2.90;;
78840;SDS011;68379;47.190;27.558;2024-02-15T10:26:04;4.90;;;2.80;;
78840;SDS011;68379;47.190;27.558;2024-02-15T10:31:56;6.00;;;2.90;;
78840;SDS011;68379;47.190;27.558;2024-02-15T10:34:28;6.10;;;3.30;;
78840;SDS011;68379;47.190;27.558;2024-02-15T10:37:10;4.80;;;2.90;;
78840;SDS011;68379;47.190;27.558;2024-02-15T10:39:44;5.10;;;2.60;;
78840;SDS011;68379;47.190;27.558;2024-02-15T10:42:34;6.50;;;3.60;;
78840;SDS011;68379;47.190;27.558;2024-02-15T10:45:10;7.00;;;2.80;;
78840;SDS011;68379;47.190;27.558;2024-02-15T10:47:43;6.10;;;3.30;;
78840;SDS011;68379;47.190;27.558;2024-02-15T10:50:16;6.80;;;3.10;;
78840;SDS011;68379;47.190;27.558;2024-02-15T10:52:51;4.40;;;2.40;;
78840;SDS011;68379;47.190;27.558;2024-02-15T10:55:29;5.80;;;3.40;;
78840;SDS011;68379;47.190;27.558;2024-02-15T10:58:08;6.80;;;3.60;;
78840;SDS011;68379;47.190;27.558;2024-02-15T11:00:43;4.80;;;2.90;;
78840;SDS011;68379;47.190;27.558;2024-02-15T11:03:21;5.40;;;3.30;;
78840;SDS011;68379;47.190;27.558;2024-02-15T11:05:59;6.80;;;3.30;;
78840;SDS011;68379;47.190;27.558;2024-02-15T11:08:35;8.50;;;3.40;;
78840;SDS011;68379;47.190;27.558;2024-02-15T11:11:07;4.80;;;3.20;;
78840;SDS011;68379;47.190;27.558;2024-02-15T11:13:42;6.10;;;2.90;;
78840;SDS011;68379;47.190;27.558;2024-02-15T11:16:27;6.30;;;3.60;;
78840;SDS011;68379;47.190;27.558;2024-02-15T11:19:11;6.00;;;3.30;;
78840;SDS011;68379;47.190;27.558;2024-02-15T11:22:15;6.00;;;2.80;;
78840;SDS011;68379;47.190;27.558;2024-02-15T11:24:47;6.40;;;3.20;;
78840;SDS011;68379;47.190;27.558;2024-02-15T11:27:26;5.80;;;3.00;;
78840;SDS011;68379;47.190;27.558;2024-02-15T11:30:00;4.70;;;2.90;;
78840;SDS011;68379;47.190;27.558;2024-02-15T11:32:43;5.40;;;2.90;;
78840;SDS011;68379;47.190;27.558;2024-02-15T11:35:17;6.10;;;3.40;;
78840;SDS011;68379;47.190;27.558;2024-02-15T11:37:55;6.70;;;3.70;;
78840;SDS011;68379;47.190;27.558;2024-02-15T11:46:18;4.30;;;2.70;;
78840;SDS011;68379;47.190;27.558;2024-02-15T11:48:50;5.80;;;2.90;;
78840;SDS011;68379;47.190;27.558;2024-02-15T11:51:27;6.70;;;3.60;;
78840;SDS011;68379;47.190;27.558;2024-02-15T11:54:05;4.90;;;3.30;;
78840;SDS011;68379;47.190;27.558;2024-02-15T11:56:52;6.60;;;3.10;;
78840;SDS011;68379;47.190;27.558;2024-02-15T11:59:41;5.60;;;3.00;;
78840;SDS011;68379;47.190;27.558;2024-02-15T12:02:21;5.90;;;3.20;;
78840;SDS011;68379;47.190;27.558;2024-02-15T12:05:11;5.90;;;3.30;;
78840;SDS011;68379;47.190;27.558;2024-02-15T12:07:56;5.50;;;3.20;;
78840;SDS011;68379;47.190;27.558;2024-02-15T12:10:56;7.40;;;3.30;;
78840;SDS011;68379;47.190;27.558;2024-02-15T12:13:46;6.70;;;3.70;;
78840;SDS011;68379;47.190;27.558;2024-02-15T12:16:38;5.50;;;3.20;;
78840;SDS011;68379;47.190;27.558;2024-02-15T12:19:28;5.60;;;3.50;;
78840;SDS011;68379;47.190;27.558;2024-02-15T12:22:01;6.50;;;3.90;;
78840;SDS011;68379;47.190;27.558;2024-02-15T12:24:34;4.40;;;2.50;;
78840;SDS011;68379;47.190;27.558;2024-02-15T12:27:06;6.00;;;3.70;;
78840;SDS011;68379;47.190;27.558;2024-02-15T12:29:38;6.50;;;3.70;;
78840;SDS011;68379;47.190;27.558;2024-02-15T12:32:09;5.50;;;4.00;;
78840;SDS011;68379;47.190;27.558;2024-02-15T12:34:49;5.20;;;3.00;;
78840;SDS011;68379;47.190;27.558;2024-02-15T12:37:21;7.50;;;3.90;;
78840;SDS011;68379;47.190;27.558;2024-02-15T12:39:53;6.50;;;3.70;;
78840;SDS011;68379;47.190;27.558;2024-02-15T12:42:39;5.50;;;3.20;;
78840;SDS011;68379;47.190;27.558;2024-02-15T12:45:17;4.60;;;2.90;;
78840;SDS011;68379;47.190;27.558;2024-02-15T12:47:51;5.90;;;3.30;;
78840;SDS011;68379;47.190;27.558;2024-02-15T12:50:23;5.60;;;3.50;;
78840;SDS011;68379;47.190;27.558;2024-02-15T12:52:59;7.60;;;3.80;;
78840;SDS011;68379;47.190;27.558;2024-02-15T12:55:31;6.00;;;3.60;;
78840;SDS011;68379;47.190;27.558;2024-02-15T12:58:04;7.50;;;3.70;;
78840;SDS011;68379;47.190;27.558;2024-02-15T13:00:43;6.00;;;3.40;;
78840;SDS011;68379;47.190;27.558;2024-02-15T13:03:15;6.10;;;3.50;;
78840;SDS011;68379;47.190;27.558;2024-02-15T13:05:46;6.10;;;3.40;;
78840;SDS011;68379;47.190;27.558;2024-02-15T13:08:19;6.40;;;3.50;;
78840;SDS011;68379;47.190;27.558;2024-02-15T13:10:50;5.50;;;3.60;;
78840;SDS011;68379;47.190;27.558;2024-02-15T13:13:22;5.00;;;3.30;;
78840;SDS011;68379;47.190;27.558;2024-02-15T13:15:55;5.60;;;3.20;;
78840;SDS011;68379;47.190;27.558;2024-02-15T13:18:27;5.80;;;3.80;;
78840;SDS011;68379;47.190;27.558;2024-02-15T13:20:59;7.70;;;3.40;;
78840;SDS011;68379;47.190;27.558;2024-02-15T13:23:33;7.20;;;3.40;;
78840;SDS011;68379;47.190;27.558;2024-02-15T13:26:05;8.70;;;4.30;;
78840;SDS011;68379;47.190;27.558;2024-02-15T13:28:39;6.30;;;3.40;;
78840;SDS011;68379;47.190;27.558;2024-02-15T13:31:12;7.00;;;3.90;;
78840;SDS011;68379;47.190;27.558;2024-02-15T13:33:44;9.00;;;4.40;;
78840;SDS011;68379;47.190;27.558;2024-02-15T13:36:16;7.30;;;4.30;;
78840;SDS011;68379;47.190;27.558;2024-02-15T13:38:48;7.50;;;4.20;;
78840;SDS011;68379;47.190;27.558;2024-02-15T13:41:20;7.20;;;3.90;;
78840;SDS011;68379;47.190;27.558;2024-02-15T13:43:51;8.30;;;4.10;;
78840;SDS011;68379;47.190;27.558;2024-02-15T13:46:23;7.00;;;4.30;;
78840;SDS011;68379;47.190;27.558;2024-02-15T13:48:54;8.10;;;4.00;;
78840;SDS011;68379;47.190;27.558;2024-02-15T13:51:26;6.20;;;3.60;;
78840;SDS011;68379;47.190;27.558;2024-02-15T13:53:57;6.90;;;4.20;;
78840;SDS011;68379;47.190;27.558;2024-02-15T13:56:29;8.90;;;4.20;;
78840;SDS011;68379;47.190;27.558;2024-02-15T13:59:01;8.30;;;4.50;;
78840;SDS011;68379;47.190;27.558;2024-02-15T14:01:33;9.30;;;4.80;;
78840;SDS011;68379;47.190;27.558;2024-02-15T14:04:11;7.60;;;4.00;;
78840;SDS011;68379;47.190;27.558;2024-02-15T14:06:44;6.80;;;4.10;;
78840;SDS011;68379;47.190;27.558;2024-02-15T14:09:16;10.20;;;5.20;;
78840;SDS011;68379;47.190;27.558;2024-02-15T14:11:48;8.30;;;4.00;;
78840;SDS011;68379;47.190;27.558;2024-02-15T14:14:19;9.10;;;4.50;;
78840;SDS011;68379;47.190;27.558;2024-02-15T14:16:51;8.30;;;4.30;;
78840;SDS011;68379;47.190;27.558;2024-02-15T14:19:23;10.00;;;4.60;;
78840;SDS011;68379;47.190;27.558;2024-02-15T14:21:55;8.50;;;4.30;;
78840;SDS011;68379;47.190;27.558;2024-02-15T14:24:27;6.90;;;4.30;;
78840;SDS011;68379;47.190;27.558;2024-02-15T14:26:58;9.10;;;4.30;;
78840;SDS011;68379;47.190;27.558;2024-02-15T14:29:31;9.80;;;5.00;;
78840;SDS011;68379;47.190;27.558;2024-02-15T14:34:52;10.10;;;4.70;;
78840;SDS011;68379;47.190;27.558;2024-02-15T14:37:24;10.30;;;4.60;;
78840;SDS011;68379;47.190;27.558;2024-02-15T14:39:56;10.90;;;4.90;;
78840;SDS011;68379;47.190;27.558;2024-02-15T14:42:27;9.00;;;4.60;;
78840;SDS011;68379;47.190;27.558;2024-02-15T14:44:59;8.50;;;5.10;;
78840;SDS011;68379;47.190;27.558;2024-02-15T14:47:30;10.70;;;5.20;;
78840;SDS011;68379;47.190;27.558;2024-02-15T14:50:02;11.10;;;5.80;;
78840;SDS011;68379;47.190;27.558;2024-02-15T14:52:37;10.30;;;5.10;;
78840;SDS011;68379;47.190;27.558;2024-02-15T14:55:11;8.90;;;5.00;;
78840;SDS011;68379;47.190;27.558;2024-02-15T14:57:43;9.90;;;4.90;;
78840;SDS011;68379;47.190;27.558;2024-02-15T15:00:15;10.00;;;5.50;;
78840;SDS011;68379;47.190;27.558;2024-02-15T15:02:49;10.00;;;5.10;;
78840;SDS011;68379;47.190;27.558;2024-02-15T15:05:21;10.90;;;5.70;;
78840;SDS011;68379;47.190;27.558;2024-02-15T15:08:10;9.80;;;5.00;;
78840;SDS011;68379;47.190;27.558;2024-02-15T15:10:59;8.10;;;5.00;;
78840;SDS011;68379;47.190;27.558;2024-02-15T15:13:48;7.70;;;4.20;;
78840;SDS011;68379;47.190;27.558;2024-02-15T15:16:20;8.30;;;3.60;;
78840;SDS011;68379;47.190;27.558;2024-02-15T15:18:53;9.10;;;4.60;;
78840;SDS011;68379;47.190;27.558;2024-02-15T15:21:25;10.00;;;4.60;;
78840;SDS011;68379;47.190;27.558;2024-02-15T15:23:57;8.90;;;4.70;;
78840;SDS011;68379;47.190;27.558;2024-02-15T15:26:29;7.30;;;4.30;;
78840;SDS011;68379;47.190;27.558;2024-02-15T15:29:00;6.80;;;4.30;;
78840;SDS011;68379;47.190;27.558;2024-02-15T15:31:33;9.30;;;4.20;;
78840;SDS011;68379;47.190;27.558;2024-02-15T15:34:06;8.20;;;4.30;;